createdAt,value
2023-03-12T00:02:12.060Z,-5.30
2023-03-12T00:04:40.495Z,-5.40
2023-03-12T00:07:08.984Z,-5.40
2023-03-12T00:09:38.068Z,-5.50
2023-03-12T00:12:08.763Z,-5.40
2023-03-12T00:14:37.865Z,-5.40
2023-03-12T00:17:06.531Z,-5.40
2023-03-12T00:19:35.043Z,-5.30
2023-03-12T00:22:03.435Z,-5.30
2023-03-12T00:24:31.948Z,-5.30
2023-03-12T00:27:00.365Z,-5.30
2023-03-12T00:29:30.565Z,-5.30
2023-03-12T00:31:59.041Z,-5.40
2023-03-12T00:34:27.475Z,-5.40
2023-03-12T00:36:55.883Z,-5.40
2023-03-12T00:39:24.301Z,-5.50
2023-03-12T00:41:52.744Z,-5.50
2023-03-12T00:44:21.293Z,-5.50
2023-03-12T00:46:51.074Z,-5.50
2023-03-12T00:49:19.541Z,-5.60
2023-03-12T00:51:47.939Z,-5.60
2023-03-12T00:54:16.409Z,-5.60
2023-03-12T00:56:46.650Z,-5.60
2023-03-12T00:59:15.191Z,-5.60
2023-03-12T01:01:44.126Z,-5.60
2023-03-12T01:04:14.055Z,-5.60
2023-03-12T01:06:42.493Z,-5.60
2023-03-12T01:09:11.523Z,-5.60
2023-03-12T01:11:40.663Z,-5.60
2023-03-12T01:14:10.149Z,-5.60
2023-03-12T01:16:38.395Z,-5.70
2023-03-12T01:19:06.811Z,-5.70
2023-03-12T01:21:36.750Z,-5.70
2023-03-12T01:24:05.643Z,-5.70
2023-03-12T01:26:34.073Z,-5.80
2023-03-12T01:29:02.498Z,-5.70
2023-03-12T01:31:30.960Z,-5.70
2023-03-12T01:33:59.475Z,-5.70
2023-03-12T01:36:29.793Z,-5.70
2023-03-12T01:39:00.598Z,-5.70
2023-03-12T01:41:33.051Z,-5.70
2023-03-12T01:44:03.809Z,-5.80
2023-03-12T01:46:34.553Z,-5.90
2023-03-12T01:49:08.782Z,-5.90
2023-03-12T01:51:40.550Z,-5.90
2023-03-12T01:54:14.743Z,-5.90
2023-03-12T01:56:43.762Z,-5.90
2023-03-12T01:59:17.551Z,-5.90
2023-03-12T02:01:46.309Z,-5.90
2023-03-12T02:04:17.269Z,-6.00
2023-03-12T02:06:51.061Z,-6.10
2023-03-12T02:09:23.088Z,-6.00
2023-03-12T02:11:51.573Z,-6.00
2023-03-12T02:14:20.195Z,-6.00
2023-03-12T02:16:48.762Z,-5.90
2023-03-12T02:19:24.210Z,-6.00
2023-03-12T02:21:52.825Z,-5.90
2023-03-12T02:24:31.566Z,-5.80
2023-03-12T02:27:02.330Z,-5.80
2023-03-12T02:29:32.961Z,-5.80
2023-03-12T02:32:04.223Z,-5.80
2023-03-12T02:34:32.862Z,-5.90
2023-03-12T02:37:01.263Z,-5.90
2023-03-12T02:39:29.687Z,-5.80
2023-03-12T02:41:59.900Z,-5.90
2023-03-12T02:44:31.791Z,-5.80
2023-03-12T02:47:02.264Z,-5.80
2023-03-12T02:49:33.461Z,-5.70
2023-03-12T02:52:02.672Z,-5.70
2023-03-12T02:54:31.203Z,-5.70
2023-03-12T02:56:59.865Z,-5.70
2023-03-12T02:59:30.054Z,-5.60
2023-03-12T03:02:00.418Z,-5.50
2023-03-12T03:04:29.948Z,-5.70
2023-03-12T03:06:58.196Z,-5.60
2023-03-12T03:09:26.704Z,-5.60
2023-03-12T03:11:55.134Z,-5.70
2023-03-12T03:14:24.235Z,-5.70
2023-03-12T03:16:54.016Z,-5.70
2023-03-12T03:19:22.394Z,-5.70
2023-03-12T03:21:50.880Z,-5.70
2023-03-12T03:24:19.425Z,-5.70
2023-03-12T03:26:47.916Z,-5.80
2023-03-12T03:29:16.947Z,-5.80
2023-03-12T03:31:45.391Z,-5.70
2023-03-12T03:34:15.416Z,-5.70
2023-03-12T03:36:43.832Z,-5.70
2023-03-12T03:39:12.270Z,-5.60
2023-03-12T03:41:40.680Z,-5.60
2023-03-12T03:44:09.171Z,-5.70
2023-03-12T03:46:37.683Z,-5.80
2023-03-12T03:49:06.552Z,-5.70
2023-03-12T03:51:36.394Z,-5.70
2023-03-12T03:54:04.937Z,-5.70
2023-03-12T03:56:33.322Z,-5.80
2023-03-12T03:59:04.011Z,-5.80
2023-03-12T04:01:32.550Z,-5.70
2023-03-12T04:04:01.397Z,-5.70
2023-03-12T04:06:29.905Z,-5.70
2023-03-12T04:09:00.248Z,-5.80
2023-03-12T04:11:28.904Z,-5.80
2023-03-12T04:13:58.077Z,-5.70
2023-03-12T04:16:26.757Z,-5.70
2023-03-12T04:18:55.280Z,-5.70
2023-03-12T04:21:23.738Z,-5.80
2023-03-12T04:23:52.171Z,-5.80
2023-03-12T04:26:21.983Z,-5.80
2023-03-12T04:28:50.398Z,-5.80
2023-03-12T04:31:18.845Z,-5.90
2023-03-12T04:33:47.256Z,-6.00
2023-03-12T04:36:18.142Z,-5.90
2023-03-12T04:38:46.687Z,-6.00
2023-03-12T04:41:16.502Z,-5.90
2023-03-12T04:43:46.378Z,-5.90
2023-03-12T04:46:14.868Z,-5.90
2023-03-12T04:48:43.355Z,-5.80
2023-03-12T04:51:11.860Z,-5.70
2023-03-12T04:53:40.557Z,-5.90
2023-03-12T04:56:09.679Z,-5.80
2023-03-12T04:58:38.144Z,-5.80
2023-03-12T05:01:08.243Z,-5.90
2023-03-12T05:03:36.702Z,-5.80
2023-03-12T05:06:05.462Z,-5.80
2023-03-12T05:08:33.846Z,-5.80
2023-03-12T05:11:02.245Z,-5.80
2023-03-12T05:13:30.731Z,-5.80
2023-03-12T05:15:59.220Z,-5.70
2023-03-12T05:18:29.069Z,-5.70
2023-03-12T05:21:02.531Z,-5.70
2023-03-12T05:23:31.074Z,-5.70
2023-03-12T05:25:59.529Z,-5.70
2023-03-12T05:28:28.751Z,-5.70
2023-03-12T05:30:58.019Z,-5.70
2023-03-12T05:33:29.603Z,-5.50
2023-03-12T05:35:58.223Z,-5.50
2023-03-12T05:38:26.770Z,-5.40
2023-03-12T05:40:56.417Z,-5.40
2023-03-12T05:43:24.994Z,-5.30
2023-03-12T05:45:54.420Z,-5.30
2023-03-12T05:48:22.665Z,-5.10
2023-03-12T05:50:52.381Z,-5.10
2023-03-12T05:53:20.782Z,-5.00
2023-03-12T05:55:49.207Z,-4.90
2023-03-12T05:58:17.674Z,-4.90
2023-03-12T06:00:46.145Z,-4.80
2023-03-12T06:03:14.676Z,-4.80
2023-03-12T06:05:45.346Z,-4.70
2023-03-12T06:08:15.639Z,-4.60
2023-03-12T06:10:44.057Z,-4.60
2023-03-12T06:13:12.452Z,-4.50
2023-03-12T06:15:40.843Z,-4.50
2023-03-12T06:18:09.265Z,-4.40
2023-03-12T06:20:37.708Z,-4.30
2023-03-12T06:23:06.219Z,-4.30
2023-03-12T06:25:36.030Z,-4.20
2023-03-12T06:28:04.741Z,-4.10
2023-03-12T06:30:33.140Z,-4.10
2023-03-12T06:33:03.928Z,-3.90
2023-03-12T06:35:32.375Z,-3.90
2023-03-12T06:38:00.817Z,-3.80
2023-03-12T06:40:29.248Z,-3.70
2023-03-12T06:42:59.158Z,-3.60
2023-03-12T06:45:27.569Z,-3.40
2023-03-12T06:47:56.101Z,-3.20
2023-03-12T06:50:24.514Z,-3.10
2023-03-12T06:52:52.959Z,-2.90
2023-03-12T06:55:21.334Z,-2.80
2023-03-12T06:57:49.764Z,-2.70
2023-03-12T07:00:20.556Z,-2.60
2023-03-12T07:02:49.091Z,-2.50
2023-03-12T07:05:17.775Z,-2.40
2023-03-12T07:07:46.337Z,-2.30
2023-03-12T07:10:14.748Z,-2.20
2023-03-12T07:12:43.286Z,-2.00
2023-03-12T07:15:12.730Z,-1.70
2023-03-12T07:17:42.514Z,-1.40
2023-03-12T07:20:12.478Z,-1.20
2023-03-12T07:22:40.920Z,-1.00
2023-03-12T07:25:11.061Z,-0.80
2023-03-12T07:27:39.617Z,-0.60
2023-03-12T07:30:09.409Z,-0.10
2023-03-12T07:32:37.694Z,0.40
2023-03-12T07:35:08.446Z,0.40
2023-03-12T07:37:36.881Z,0.90
2023-03-12T07:40:07.514Z,1.10
2023-03-12T07:42:36.075Z,1.40
2023-03-12T07:45:04.880Z,1.90
2023-03-12T07:47:33.472Z,2.00
2023-03-12T07:50:02.211Z,2.20
2023-03-12T07:52:32.605Z,2.40
2023-03-12T07:55:01.363Z,2.70
2023-03-12T07:57:29.916Z,2.60
2023-03-12T07:59:58.706Z,2.70
2023-03-12T08:02:27.774Z,3.10
2023-03-12T08:04:56.418Z,3.80
2023-03-12T08:07:24.961Z,4.10
2023-03-12T08:09:54.934Z,4.10
2023-03-12T08:12:23.442Z,4.20
2023-03-12T08:14:52.041Z,4.00
2023-03-12T08:17:20.548Z,3.60
2023-03-12T08:19:49.129Z,3.90
2023-03-12T08:22:17.782Z,4.70
2023-03-12T08:24:46.529Z,4.40
2023-03-12T08:27:16.939Z,3.70
2023-03-12T08:29:45.383Z,3.40
2023-03-12T08:32:14.277Z,3.20
2023-03-12T08:34:43.158Z,2.80
2023-03-12T08:37:11.927Z,2.90
2023-03-12T08:39:40.672Z,2.90
2023-03-12T08:42:09.611Z,2.70
2023-03-12T08:44:39.423Z,3.00
2023-03-12T08:47:08.195Z,2.90
2023-03-12T08:49:37.081Z,3.10
2023-03-12T08:52:06.590Z,3.50
2023-03-12T08:54:35.091Z,3.50
2023-03-12T08:57:04.078Z,3.20
2023-03-12T08:59:32.663Z,3.50
2023-03-12T09:02:02.594Z,3.80
2023-03-12T09:04:31.612Z,4.30
2023-03-12T09:07:01.860Z,4.10
2023-03-12T09:09:30.763Z,4.70
2023-03-12T09:11:59.548Z,4.80
2023-03-12T09:15:01.486Z,5.00
2023-03-12T09:17:18.446Z,4.60
2023-03-12T09:19:47.525Z,4.30
2023-03-12T09:22:15.956Z,3.80
2023-03-12T09:24:44.899Z,3.70
2023-03-12T09:27:13.693Z,3.70
2023-03-12T09:29:57.228Z,3.90
2023-03-12T09:32:29.644Z,4.10
2023-03-12T09:34:58.185Z,4.70
2023-03-12T09:37:26.922Z,4.60
2023-03-12T09:39:55.618Z,4.50
2023-03-12T09:42:26.968Z,4.40
2023-03-12T09:44:58.667Z,5.20
2023-03-12T09:47:32.690Z,4.90
2023-03-12T09:50:05.731Z,6.00
2023-03-12T09:52:39.769Z,6.10
2023-03-12T09:55:14.793Z,5.30
2023-03-12T09:57:44.441Z,6.20
2023-03-12T10:00:16.143Z,6.50
2023-03-12T10:03:05.454Z,5.50
2023-03-12T10:05:39.144Z,5.30
2023-03-12T10:08:23.840Z,5.40
2023-03-12T10:10:57.252Z,5.40
2023-03-12T10:13:44.845Z,4.70
2023-03-12T10:16:26.403Z,5.10
2023-03-12T10:19:06.683Z,5.30
2023-03-12T10:21:38.244Z,5.80
2023-03-12T10:24:25.066Z,6.20
2023-03-12T10:26:57.629Z,6.50
2023-03-12T10:29:32.311Z,6.50
2023-03-12T10:32:05.361Z,6.10
2023-03-12T10:34:41.178Z,6.40
2023-03-12T10:37:17.266Z,6.00
2023-03-12T10:39:46.798Z,6.40
2023-03-12T10:42:18.939Z,6.50
2023-03-12T10:44:49.979Z,6.40
2023-03-12T10:47:29.836Z,6.60
2023-03-12T10:50:12.306Z,6.40
2023-03-12T10:52:40.728Z,6.70
2023-03-12T10:55:14.793Z,7.90
2023-03-12T10:57:44.066Z,7.40
2023-03-12T11:00:20.997Z,7.80
2023-03-12T11:02:58.792Z,8.60
2023-03-12T11:05:31.538Z,7.50
2023-03-12T11:08:01.941Z,8.20
2023-03-12T11:10:44.024Z,9.00
2023-03-12T11:13:38.152Z,9.50
2023-03-12T11:16:26.939Z,7.30
2023-03-12T11:18:57.466Z,6.70
2023-03-12T11:21:27.298Z,6.60
2023-03-12T11:24:07.316Z,6.80
2023-03-12T11:26:41.177Z,6.30
2023-03-12T11:29:19.822Z,6.10
2023-03-12T11:31:57.153Z,6.40
2023-03-12T11:34:29.752Z,7.80
2023-03-12T11:37:09.018Z,8.60
2023-03-12T11:39:50.641Z,9.00
2023-03-12T11:42:31.103Z,8.80
2023-03-12T11:45:08.908Z,9.00
2023-03-12T11:47:59.727Z,7.80
2023-03-12T11:50:38.219Z,9.00
2023-03-12T11:53:30.164Z,9.50
2023-03-12T11:56:08.825Z,9.00
2023-03-12T11:58:49.849Z,8.80
2023-03-12T12:01:27.882Z,9.40
2023-03-12T12:04:10.892Z,9.40
2023-03-12T12:06:51.118Z,9.30
2023-03-12T12:09:29.845Z,9.60
2023-03-12T12:12:10.970Z,7.70
2023-03-12T12:14:58.080Z,7.40
2023-03-12T12:17:35.093Z,8.10
2023-03-12T12:20:19.025Z,8.00
2023-03-12T12:22:59.977Z,7.80
2023-03-12T12:25:50.992Z,6.80
2023-03-12T12:28:34.068Z,6.20
2023-03-12T12:31:23.955Z,6.10
2023-03-12T12:34:07.794Z,6.60
2023-03-12T12:36:37.228Z,7.40
2023-03-12T12:39:12.696Z,6.80
2023-03-12T12:41:48.159Z,6.60
2023-03-12T12:44:21.103Z,7.00
2023-03-12T12:46:53.108Z,7.80
2023-03-12T12:49:27.340Z,8.20
2023-03-12T12:52:01.056Z,7.00
2023-03-12T12:54:35.776Z,6.30
2023-03-12T12:57:12.857Z,6.70
2023-03-12T12:59:43.754Z,7.10
2023-03-12T13:02:18.277Z,7.70
2023-03-12T13:04:47.612Z,7.70
2023-03-12T13:07:34.416Z,7.50
2023-03-12T13:10:07.726Z,7.40
2023-03-12T13:12:48.565Z,7.80
2023-03-12T13:18:32.092Z,6.90
2023-03-12T13:21:10.666Z,7.10
2023-03-12T13:23:45.082Z,7.10
2023-03-12T13:26:24.855Z,7.20
2023-03-12T13:29:20.363Z,7.10
2023-03-12T13:31:48.888Z,7.00
2023-03-12T13:34:45.803Z,6.90
2023-03-12T13:37:28.976Z,6.50
2023-03-12T13:40:07.292Z,5.90
2023-03-12T13:42:43.052Z,6.00
2023-03-12T13:45:31.884Z,6.00
2023-03-12T13:48:03.152Z,6.20
2023-03-12T13:50:43.344Z,6.30
2023-03-12T13:53:21.181Z,6.40
2023-03-12T13:56:01.318Z,6.10
2023-03-12T13:58:30.631Z,5.80
2023-03-12T14:01:04.923Z,5.90
2023-03-12T14:03:38.646Z,6.10
2023-03-12T14:06:10.855Z,5.80
2023-03-12T14:08:58.137Z,6.00
2023-03-12T14:11:49.306Z,6.30
2023-03-12T14:14:45.111Z,6.30
2023-03-12T14:17:20.435Z,6.10
2023-03-12T14:19:52.173Z,6.10
2023-03-12T14:22:24.110Z,6.00
2023-03-12T14:24:55.955Z,5.80
2023-03-12T14:27:28.923Z,5.90
2023-03-12T14:29:59.953Z,5.80
2023-03-12T14:32:32.477Z,5.60
2023-03-12T14:35:15.373Z,5.80
2023-03-12T14:37:48.249Z,5.60
2023-03-12T14:40:24.750Z,5.50
2023-03-12T14:42:53.246Z,5.80
2023-03-12T14:45:23.994Z,5.90
2023-03-12T14:47:56.922Z,6.00
2023-03-12T14:50:27.726Z,5.80
2023-03-12T14:53:00.999Z,5.60
2023-03-12T14:55:30.452Z,5.60
2023-03-12T14:58:06.177Z,5.40
2023-03-12T15:00:35.296Z,5.60
2023-03-12T15:03:13.336Z,5.70
2023-03-12T15:05:47.168Z,5.80
2023-03-12T15:08:17.901Z,5.60
2023-03-12T15:10:49.856Z,5.40
2023-03-12T15:13:20.987Z,5.30
2023-03-12T15:15:51.114Z,5.20
2023-03-12T15:18:23.925Z,5.20
2023-03-12T15:20:54.321Z,5.10
2023-03-12T15:23:24.697Z,5.20
2023-03-12T15:26:13.021Z,5.10
2023-03-12T15:28:42.817Z,5.00
2023-03-12T15:31:13.835Z,4.90
2023-03-12T15:33:45.120Z,5.10
2023-03-12T15:36:28.953Z,5.00
2023-03-12T15:39:01.582Z,5.30
2023-03-12T15:41:41.162Z,5.20
2023-03-12T15:44:20.864Z,5.20
2023-03-12T15:46:51.017Z,5.10
2023-03-12T15:49:25.997Z,5.00
2023-03-12T15:52:04.478Z,5.00
2023-03-12T15:54:33.276Z,4.60
2023-03-12T15:57:23.411Z,4.50
2023-03-12T16:00:12.333Z,4.30
2023-03-12T16:02:48.459Z,4.20
2023-03-12T16:05:18.691Z,4.20
2023-03-12T16:07:47.416Z,4.30
2023-03-12T16:10:18.514Z,4.20
2023-03-12T16:12:48.578Z,4.30
2023-03-12T16:15:19.630Z,4.20
2023-03-12T16:17:48.461Z,4.00
2023-03-12T16:20:19.920Z,3.70
2023-03-12T16:22:48.325Z,3.70
2023-03-12T16:25:17.283Z,3.60
2023-03-12T16:27:49.582Z,3.50
2023-03-12T16:30:22.114Z,3.50
2023-03-12T16:32:50.808Z,3.50
2023-03-12T16:35:21.854Z,3.50
2023-03-12T16:37:54.548Z,3.50
2023-03-12T16:40:32.881Z,3.60
2023-03-12T16:43:04.477Z,3.50
2023-03-12T16:45:36.906Z,3.50
2023-03-12T16:48:07.136Z,3.50
2023-03-12T16:50:37.185Z,3.50
2023-03-12T16:53:05.885Z,3.50
2023-03-12T16:55:45.623Z,3.50
2023-03-12T16:58:15.187Z,3.50
2023-03-12T17:00:43.607Z,3.50
2023-03-12T17:03:19.642Z,3.60
2023-03-12T17:05:49.420Z,3.60
2023-03-12T17:08:17.634Z,3.50
2023-03-12T17:10:46.644Z,3.60
2023-03-12T17:13:27.682Z,3.60
2023-03-12T17:15:56.934Z,3.70
2023-03-12T17:18:25.512Z,3.70
2023-03-12T17:20:56.576Z,3.60
2023-03-12T17:23:25.148Z,3.70
2023-03-12T17:25:54.034Z,3.60
2023-03-12T17:28:22.477Z,3.60
2023-03-12T17:30:51.260Z,3.60
2023-03-12T17:33:20.851Z,3.60
2023-03-12T17:35:59.764Z,3.60
2023-03-12T17:38:30.136Z,3.60
2023-03-12T17:41:00.252Z,3.60
2023-03-12T17:43:29.185Z,3.60
2023-03-12T17:45:57.630Z,3.60
2023-03-12T17:48:26.095Z,3.70
2023-03-12T17:50:54.529Z,3.60
2023-03-12T17:53:24.405Z,3.60
2023-03-12T17:55:53.107Z,3.60
2023-03-12T17:58:21.476Z,3.70
2023-03-12T18:00:50.272Z,3.70
2023-03-12T18:03:18.760Z,3.70
2023-03-12T18:05:47.190Z,3.70
2023-03-12T18:08:16.508Z,3.70
2023-03-12T18:10:46.488Z,3.70
2023-03-12T18:13:14.967Z,3.70
2023-03-12T18:15:43.452Z,3.70
2023-03-12T18:18:12.008Z,3.70
2023-03-12T18:20:40.503Z,3.70
2023-03-12T18:23:08.872Z,3.70
2023-03-12T18:25:38.815Z,3.60
2023-03-12T18:28:08.740Z,3.60
2023-03-12T18:30:37.168Z,3.50
2023-03-12T18:33:05.607Z,3.50
2023-03-12T18:35:35.001Z,3.50
2023-03-12T18:38:03.481Z,3.50
2023-03-12T18:40:33.000Z,3.50
2023-03-12T18:43:02.863Z,3.50
2023-03-12T18:48:25.042Z,3.60
2023-03-12T18:50:53.479Z,3.70
2023-03-12T18:53:21.884Z,3.60
2023-03-12T18:55:54.062Z,3.60
2023-03-12T18:58:23.375Z,3.70
2023-03-12T19:00:54.396Z,3.70
2023-03-12T19:03:24.003Z,3.70
2023-03-12T19:06:02.548Z,3.80
2023-03-12T19:08:31.173Z,3.70
2023-03-12T19:10:59.559Z,3.70
2023-03-12T19:13:28.243Z,3.70
2023-03-12T19:16:02.354Z,3.70
2023-03-12T19:18:30.919Z,3.70
2023-03-12T19:20:59.319Z,3.70
2023-03-12T19:23:27.831Z,3.70
2023-03-12T19:25:56.345Z,3.70
2023-03-12T19:28:25.222Z,3.70
2023-03-12T19:31:01.905Z,3.80
2023-03-12T19:33:30.522Z,3.80
2023-03-12T19:35:59.725Z,3.80
2023-03-12T19:38:28.720Z,3.70
2023-03-12T19:40:58.850Z,3.70
2023-03-12T19:43:27.647Z,3.70
2023-03-12T19:45:56.399Z,3.70
2023-03-12T19:48:26.246Z,3.80
2023-03-12T19:50:55.904Z,3.80
2023-03-12T19:53:24.725Z,3.90
2023-03-12T19:55:53.281Z,3.80
2023-03-12T19:58:22.427Z,3.90
2023-03-12T20:00:50.898Z,3.90
2023-03-12T20:03:20.665Z,3.90
2023-03-12T20:05:51.445Z,4.00
2023-03-12T20:08:20.929Z,4.00
2023-03-12T20:10:49.946Z,4.00
2023-03-12T20:13:18.604Z,4.00
2023-03-12T20:15:48.373Z,4.00
2023-03-12T20:18:16.839Z,4.10
2023-03-12T20:20:45.209Z,4.10
2023-03-12T20:23:15.009Z,4.20
2023-03-12T20:25:43.260Z,4.20
2023-03-12T20:28:11.852Z,4.20
2023-03-12T20:30:41.224Z,4.20
2023-03-12T20:33:09.942Z,4.20
2023-03-12T20:35:38.515Z,4.30
2023-03-12T20:38:07.306Z,4.30
2023-03-12T20:40:37.278Z,4.30
2023-03-12T20:43:05.926Z,4.30
2023-03-12T20:45:35.206Z,4.40
2023-03-12T20:48:03.670Z,4.40
2023-03-12T20:50:32.083Z,4.40
2023-03-12T20:53:00.463Z,4.40
2023-03-12T20:55:28.873Z,4.40
2023-03-12T20:57:58.675Z,4.50
2023-03-12T21:00:26.917Z,4.50
2023-03-12T21:02:55.261Z,4.50
2023-03-12T21:05:25.062Z,4.60
2023-03-12T21:07:53.732Z,4.50
2023-03-12T21:10:22.378Z,4.60
2023-03-12T21:12:50.827Z,4.60
2023-03-12T21:15:20.802Z,4.60
2023-03-12T21:17:49.203Z,4.60
2023-03-12T21:20:18.793Z,4.60
2023-03-12T21:22:47.649Z,4.60
2023-03-12T21:25:16.403Z,4.60
2023-03-12T21:27:51.083Z,4.60
2023-03-12T21:30:21.971Z,4.70
2023-03-12T21:32:50.524Z,4.70
2023-03-12T21:35:19.996Z,4.70
2023-03-12T21:37:49.014Z,4.70
2023-03-12T21:40:18.081Z,4.80
2023-03-12T21:42:46.663Z,4.80
2023-03-12T21:45:15.047Z,4.80
2023-03-12T21:47:45.082Z,4.80
2023-03-12T21:50:13.912Z,4.80
2023-03-12T21:52:47.831Z,4.90
2023-03-12T21:55:17.523Z,4.90
2023-03-12T21:57:46.846Z,4.90
2023-03-12T22:00:16.262Z,4.90
2023-03-12T22:02:47.298Z,4.90
2023-03-12T22:05:16.400Z,4.90
2023-03-12T22:07:45.170Z,4.90
2023-03-12T22:10:14.044Z,4.90
2023-03-12T22:12:42.768Z,5.00
2023-03-12T22:15:11.907Z,5.00
2023-03-12T22:17:40.472Z,5.00
2023-03-12T22:20:12.490Z,5.00
2023-03-12T22:22:40.893Z,4.90
2023-03-12T22:25:10.223Z,4.90
2023-03-12T22:27:38.666Z,4.90
2023-03-12T22:30:08.775Z,4.90
2023-03-12T22:32:37.227Z,4.90
2023-03-12T22:35:06.325Z,5.00
2023-03-12T22:37:36.400Z,5.00
2023-03-12T22:40:07.127Z,5.20
2023-03-12T22:42:35.613Z,5.20
2023-03-12T22:45:04.864Z,5.10
2023-03-12T22:47:33.607Z,5.10
2023-03-12T22:50:02.005Z,5.10
2023-03-12T22:52:30.753Z,5.00
2023-03-12T22:55:00.678Z,5.00
2023-03-12T22:57:29.132Z,5.10
2023-03-12T22:59:57.515Z,5.10
2023-03-12T23:02:26.271Z,5.10
2023-03-12T23:04:55.406Z,5.10
2023-03-12T23:07:24.249Z,5.20
2023-03-12T23:09:52.659Z,5.20
2023-03-12T23:12:22.404Z,5.10
2023-03-12T23:14:50.993Z,5.10
2023-03-12T23:17:19.449Z,5.00
2023-03-12T23:19:48.190Z,5.00
2023-03-12T23:22:16.600Z,5.00
2023-03-12T23:24:45.359Z,5.00
2023-03-12T23:27:13.761Z,5.20
2023-03-12T23:29:43.561Z,5.20
2023-03-12T23:32:11.806Z,5.10
2023-03-12T23:34:40.107Z,5.10
2023-03-12T23:37:08.567Z,5.00
2023-03-12T23:39:48.454Z,5.00
2023-03-12T23:42:22.727Z,5.00
2023-03-12T23:44:52.530Z,5.10
2023-03-12T23:47:20.768Z,5.10
2023-03-12T23:49:49.441Z,5.10
2023-03-12T23:52:17.939Z,5.20
2023-03-12T23:54:46.317Z,5.20
2023-03-12T23:57:14.729Z,5.30
2023-03-12T23:59:43.098Z,5.30
